Terminal Aerodrome Forecast
Issued by NWS Tiyan, Guam

Home | Current Version | Previous Version | Text Only | Print | Product List | Glossary On
Versions: 1 2 3 4 5 6 7 8 9 10 11 12 13 14 15 16 17 18 19 20 21 22 23 24 25 26 27 28 29 30 31 32 33 34 35 36 37 38 39
000
FTPQ31 PGUM 300500
TAFPQ
TAF
PGUM 300539Z 3006/3112 22020G35KT 3SM SHRA SCT013 BKN030 OVC100
      TEMPO 3006/3009 22030G45KT 1/2SM +SHRA SCT005 BKN010 OVC025
     FM300900 20020G35KT 5SM -SHRA SCT012 BKN030 OVC100
      TEMPO 3009/3012 3SM SHRA SCT010 BKN020 OVC050
     FM302300 19016G25KT P6SM VCSH SCT012 BKN030 BKN120=

USA.gov is the U.S. government's official web portal to all federal, state and local government web resources and services.